sensor_id;sensor_type;location;lat;lon;timestamp;P1;durP1;ratioP1;P2;durP2;ratioP2
5147;SDS011;2592;48.140;7.614;2023-07-20T00:00:37;6.20;;;2.70;;
5147;SDS011;2592;48.140;7.614;2023-07-20T00:03:12;5.00;;;3.27;;
5147;SDS011;2592;48.140;7.614;2023-07-20T00:05:42;7.60;;;3.30;;
5147;SDS011;2592;48.140;7.614;2023-07-20T00:08:08;10.67;;;2.40;;
5147;SDS011;2592;48.140;7.614;2023-07-20T00:10:35;3.33;;;2.50;;
5147;SDS011;2592;48.140;7.614;2023-07-20T00:13:02;6.70;;;3.70;;
5147;SDS011;2592;48.140;7.614;2023-07-20T00:15:29;9.90;;;3.00;;
5147;SDS011;2592;48.140;7.614;2023-07-20T00:17:55;4.70;;;2.97;;
5147;SDS011;2592;48.140;7.614;2023-07-20T00:20:23;7.67;;;3.90;;
5147;SDS011;2592;48.140;7.614;2023-07-20T00:22:50;6.97;;;3.23;;
5147;SDS011;2592;48.140;7.614;2023-07-20T00:25:16;5.93;;;2.70;;
5147;SDS011;2592;48.140;7.614;2023-07-20T00:27:43;4.83;;;3.17;;
5147;SDS011;2592;48.140;7.614;2023-07-20T00:30:11;4.30;;;2.90;;
5147;SDS011;2592;48.140;7.614;2023-07-20T00:32:38;7.13;;;3.17;;
5147;SDS011;2592;48.140;7.614;2023-07-20T00:35:04;6.10;;;2.57;;
5147;SDS011;2592;48.140;7.614;2023-07-20T00:37:31;14.50;;;3.50;;
5147;SDS011;2592;48.140;7.614;2023-07-20T00:39:57;7.97;;;3.23;;
5147;SDS011;2592;48.140;7.614;2023-07-20T00:42:24;6.90;;;3.37;;
5147;SDS011;2592;48.140;7.614;2023-07-20T00:44:50;9.00;;;3.30;;
5147;SDS011;2592;48.140;7.614;2023-07-20T00:47:18;7.13;;;3.47;;
5147;SDS011;2592;48.140;7.614;2023-07-20T00:49:44;8.60;;;2.90;;
5147;SDS011;2592;48.140;7.614;2023-07-20T00:52:11;7.33;;;2.90;;
5147;SDS011;2592;48.140;7.614;2023-07-20T00:54:39;6.50;;;3.03;;
5147;SDS011;2592;48.140;7.614;2023-07-20T00:57:06;3.50;;;2.80;;
5147;SDS011;2592;48.140;7.614;2023-07-20T00:59:33;11.23;;;3.10;;
5147;SDS011;2592;48.140;7.614;2023-07-20T01:02:00;5.90;;;3.40;;
5147;SDS011;2592;48.140;7.614;2023-07-20T01:04:28;10.50;;;3.23;;
5147;SDS011;2592;48.140;7.614;2023-07-20T01:06:57;6.50;;;2.63;;
5147;SDS011;2592;48.140;7.614;2023-07-20T01:09:26;12.03;;;2.93;;
5147;SDS011;2592;48.140;7.614;2023-07-20T01:11:57;12.47;;;4.00;;
5147;SDS011;2592;48.140;7.614;2023-07-20T01:14:25;11.40;;;4.10;;
5147;SDS011;2592;48.140;7.614;2023-07-20T01:16:52;4.33;;;2.57;;
5147;SDS011;2592;48.140;7.614;2023-07-20T01:19:18;6.30;;;3.07;;
5147;SDS011;2592;48.140;7.614;2023-07-20T01:21:47;6.07;;;3.20;;
5147;SDS011;2592;48.140;7.614;2023-07-20T01:27:15;4.97;;;3.20;;
5147;SDS011;2592;48.140;7.614;2023-07-20T01:29:53;8.40;;;4.10;;
5147;SDS011;2592;48.140;7.614;2023-07-20T01:32:26;5.70;;;3.00;;
5147;SDS011;2592;48.140;7.614;2023-07-20T01:34:55;16.83;;;3.63;;
5147;SDS011;2592;48.140;7.614;2023-07-20T01:37:22;6.70;;;3.20;;
5147;SDS011;2592;48.140;7.614;2023-07-20T01:39:53;5.40;;;2.80;;
5147;SDS011;2592;48.140;7.614;2023-07-20T01:42:20;7.50;;;3.37;;
5147;SDS011;2592;48.140;7.614;2023-07-20T01:44:47;4.10;;;3.30;;
5147;SDS011;2592;48.140;7.614;2023-07-20T01:47:14;6.73;;;3.37;;
5147;SDS011;2592;48.140;7.614;2023-07-20T01:49:41;7.17;;;3.17;;
5147;SDS011;2592;48.140;7.614;2023-07-20T01:52:08;6.20;;;3.80;;
5147;SDS011;2592;48.140;7.614;2023-07-20T01:54:34;7.97;;;3.70;;
5147;SDS011;2592;48.140;7.614;2023-07-20T01:57:01;5.23;;;3.50;;
5147;SDS011;2592;48.140;7.614;2023-07-20T01:59:27;6.07;;;3.27;;
5147;SDS011;2592;48.140;7.614;2023-07-20T02:01:54;4.83;;;2.90;;
5147;SDS011;2592;48.140;7.614;2023-07-20T02:04:20;8.57;;;3.63;;
5147;SDS011;2592;48.140;7.614;2023-07-20T02:06:48;7.23;;;3.50;;
5147;SDS011;2592;48.140;7.614;2023-07-20T02:09:14;4.67;;;3.30;;
5147;SDS011;2592;48.140;7.614;2023-07-20T02:11:41;7.70;;;3.73;;
5147;SDS011;2592;48.140;7.614;2023-07-20T02:14:07;6.50;;;3.70;;
5147;SDS011;2592;48.140;7.614;2023-07-20T02:16:34;7.37;;;3.93;;
5147;SDS011;2592;48.140;7.614;2023-07-20T02:19:00;6.90;;;3.73;;
5147;SDS011;2592;48.140;7.614;2023-07-20T02:21:26;12.17;;;3.87;;
5147;SDS011;2592;48.140;7.614;2023-07-20T02:23:54;7.80;;;3.40;;
5147;SDS011;2592;48.140;7.614;2023-07-20T02:26:20;6.33;;;3.27;;
5147;SDS011;2592;48.140;7.614;2023-07-20T02:28:48;4.23;;;3.30;;
5147;SDS011;2592;48.140;7.614;2023-07-20T02:31:14;5.77;;;3.80;;
5147;SDS011;2592;48.140;7.614;2023-07-20T02:33:41;4.70;;;3.87;;
5147;SDS011;2592;48.140;7.614;2023-07-20T02:36:07;8.07;;;4.03;;
5147;SDS011;2592;48.140;7.614;2023-07-20T02:38:34;5.80;;;3.70;;
5147;SDS011;2592;48.140;7.614;2023-07-20T02:41:01;5.30;;;3.40;;
5147;SDS011;2592;48.140;7.614;2023-07-20T02:43:28;7.60;;;3.67;;
5147;SDS011;2592;48.140;7.614;2023-07-20T02:45:54;4.57;;;3.43;;
5147;SDS011;2592;48.140;7.614;2023-07-20T02:48:21;6.23;;;3.40;;
5147;SDS011;2592;48.140;7.614;2023-07-20T02:50:47;8.37;;;3.90;;
5147;SDS011;2592;48.140;7.614;2023-07-20T02:53:13;8.10;;;4.03;;
5147;SDS011;2592;48.140;7.614;2023-07-20T02:55:40;4.37;;;2.90;;
5147;SDS011;2592;48.140;7.614;2023-07-20T02:58:08;5.47;;;3.37;;
5147;SDS011;2592;48.140;7.614;2023-07-20T03:00:34;6.13;;;3.80;;
5147;SDS011;2592;48.140;7.614;2023-07-20T03:03:00;5.47;;;3.50;;
5147;SDS011;2592;48.140;7.614;2023-07-20T03:05:27;5.40;;;3.33;;
5147;SDS011;2592;48.140;7.614;2023-07-20T03:07:54;6.87;;;4.00;;
5147;SDS011;2592;48.140;7.614;2023-07-20T03:10:21;6.50;;;4.00;;
5147;SDS011;2592;48.140;7.614;2023-07-20T03:12:47;6.23;;;3.23;;
5147;SDS011;2592;48.140;7.614;2023-07-20T03:15:15;5.23;;;3.43;;
5147;SDS011;2592;48.140;7.614;2023-07-20T03:17:41;6.13;;;3.50;;
5147;SDS011;2592;48.140;7.614;2023-07-20T03:20:08;7.67;;;3.90;;
5147;SDS011;2592;48.140;7.614;2023-07-20T03:22:35;7.93;;;4.20;;
5147;SDS011;2592;48.140;7.614;2023-07-20T03:25:02;9.83;;;4.23;;
5147;SDS011;2592;48.140;7.614;2023-07-20T03:27:29;11.80;;;4.40;;
5147;SDS011;2592;48.140;7.614;2023-07-20T03:29:56;8.10;;;3.73;;
5147;SDS011;2592;48.140;7.614;2023-07-20T03:32:23;9.40;;;4.17;;
5147;SDS011;2592;48.140;7.614;2023-07-20T03:34:50;6.87;;;3.87;;
5147;SDS011;2592;48.140;7.614;2023-07-20T03:37:16;5.50;;;3.47;;
5147;SDS011;2592;48.140;7.614;2023-07-20T03:39:43;5.13;;;4.00;;
5147;SDS011;2592;48.140;7.614;2023-07-20T03:42:09;9.00;;;4.03;;
5147;SDS011;2592;48.140;7.614;2023-07-20T03:44:35;6.60;;;3.63;;
5147;SDS011;2592;48.140;7.614;2023-07-20T03:47:02;10.77;;;4.37;;
5147;SDS011;2592;48.140;7.614;2023-07-20T03:49:31;8.30;;;4.27;;
5147;SDS011;2592;48.140;7.614;2023-07-20T03:51:57;7.60;;;3.70;;
5147;SDS011;2592;48.140;7.614;2023-07-20T03:54:23;6.30;;;4.07;;
5147;SDS011;2592;48.140;7.614;2023-07-20T03:56:50;11.37;;;4.23;;
5147;SDS011;2592;48.140;7.614;2023-07-20T03:59:16;9.80;;;4.27;;
5147;SDS011;2592;48.140;7.614;2023-07-20T04:01:43;10.87;;;3.60;;
5147;SDS011;2592;48.140;7.614;2023-07-20T04:04:09;10.17;;;3.80;;
5147;SDS011;2592;48.140;7.614;2023-07-20T04:06:37;4.90;;;3.30;;
5147;SDS011;2592;48.140;7.614;2023-07-20T04:09:04;8.77;;;3.13;;
5147;SDS011;2592;48.140;7.614;2023-07-20T04:11:31;7.93;;;4.20;;
5147;SDS011;2592;48.140;7.614;2023-07-20T04:13:57;5.07;;;3.80;;
5147;SDS011;2592;48.140;7.614;2023-07-20T04:16:23;6.60;;;4.00;;
5147;SDS011;2592;48.140;7.614;2023-07-20T04:18:51;7.30;;;4.47;;
5147;SDS011;2592;48.140;7.614;2023-07-20T04:21:17;6.33;;;3.77;;
5147;SDS011;2592;48.140;7.614;2023-07-20T04:23:45;8.20;;;3.40;;
5147;SDS011;2592;48.140;7.614;2023-07-20T04:26:11;8.23;;;3.67;;
5147;SDS011;2592;48.140;7.614;2023-07-20T04:28:39;6.60;;;3.73;;
5147;SDS011;2592;48.140;7.614;2023-07-20T04:31:10;11.40;;;4.67;;
5147;SDS011;2592;48.140;7.614;2023-07-20T04:33:37;6.73;;;4.10;;
5147;SDS011;2592;48.140;7.614;2023-07-20T04:36:04;6.87;;;3.43;;
5147;SDS011;2592;48.140;7.614;2023-07-20T04:38:30;6.23;;;4.10;;
5147;SDS011;2592;48.140;7.614;2023-07-20T04:40:58;7.20;;;3.47;;
5147;SDS011;2592;48.140;7.614;2023-07-20T04:43:25;9.23;;;3.37;;
5147;SDS011;2592;48.140;7.614;2023-07-20T04:45:51;9.97;;;4.20;;
5147;SDS011;2592;48.140;7.614;2023-07-20T04:48:17;14.43;;;3.70;;
5147;SDS011;2592;48.140;7.614;2023-07-20T04:50:44;7.50;;;3.63;;
5147;SDS011;2592;48.140;7.614;2023-07-20T04:53:11;12.30;;;3.77;;
5147;SDS011;2592;48.140;7.614;2023-07-20T04:55:38;13.57;;;3.87;;
5147;SDS011;2592;48.140;7.614;2023-07-20T04:58:06;5.90;;;3.20;;
5147;SDS011;2592;48.140;7.614;2023-07-20T05:00:33;7.60;;;4.30;;
5147;SDS011;2592;48.140;7.614;2023-07-20T05:03:00;9.30;;;3.50;;
5147;SDS011;2592;48.140;7.614;2023-07-20T05:05:26;7.07;;;3.60;;
5147;SDS011;2592;48.140;7.614;2023-07-20T05:07:52;6.60;;;3.60;;
5147;SDS011;2592;48.140;7.614;2023-07-20T05:10:19;9.67;;;4.47;;
5147;SDS011;2592;48.140;7.614;2023-07-20T05:12:46;7.20;;;3.40;;
5147;SDS011;2592;48.140;7.614;2023-07-20T05:15:13;8.90;;;3.50;;
5147;SDS011;2592;48.140;7.614;2023-07-20T05:17:40;5.37;;;3.20;;
5147;SDS011;2592;48.140;7.614;2023-07-20T05:20:07;10.60;;;3.70;;
5147;SDS011;2592;48.140;7.614;2023-07-20T05:22:35;7.40;;;3.37;;
5147;SDS011;2592;48.140;7.614;2023-07-20T05:25:05;6.23;;;3.20;;
5147;SDS011;2592;48.140;7.614;2023-07-20T05:27:31;6.90;;;3.30;;
5147;SDS011;2592;48.140;7.614;2023-07-20T05:29:58;6.00;;;3.67;;
5147;SDS011;2592;48.140;7.614;2023-07-20T05:32:26;11.17;;;3.30;;
5147;SDS011;2592;48.140;7.614;2023-07-20T05:34:52;5.77;;;3.13;;
5147;SDS011;2592;48.140;7.614;2023-07-20T05:37:19;6.40;;;3.70;;
5147;SDS011;2592;48.140;7.614;2023-07-20T05:39:45;4.30;;;3.17;;
5147;SDS011;2592;48.140;7.614;2023-07-20T05:42:12;7.53;;;3.20;;
5147;SDS011;2592;48.140;7.614;2023-07-20T05:44:39;11.83;;;3.87;;
5147;SDS011;2592;48.140;7.614;2023-07-20T05:47:05;7.83;;;3.63;;
5147;SDS011;2592;48.140;7.614;2023-07-20T05:49:33;6.10;;;3.20;;
5147;SDS011;2592;48.140;7.614;2023-07-20T05:52:00;9.87;;;4.27;;
5147;SDS011;2592;48.140;7.614;2023-07-20T05:54:26;9.50;;;4.03;;
5147;SDS011;2592;48.140;7.614;2023-07-20T05:56:53;14.57;;;4.70;;
5147;SDS011;2592;48.140;7.614;2023-07-20T05:59:20;4.43;;;3.33;;
5147;SDS011;2592;48.140;7.614;2023-07-20T06:01:48;11.27;;;4.10;;
5147;SDS011;2592;48.140;7.614;2023-07-20T06:04:14;6.40;;;3.30;;
5147;SDS011;2592;48.140;7.614;2023-07-20T06:06:42;8.30;;;4.73;;
5147;SDS011;2592;48.140;7.614;2023-07-20T06:09:09;9.73;;;3.90;;
5147;SDS011;2592;48.140;7.614;2023-07-20T06:11:37;10.80;;;4.10;;
5147;SDS011;2592;48.140;7.614;2023-07-20T06:14:03;14.67;;;4.13;;
5147;SDS011;2592;48.140;7.614;2023-07-20T06:16:30;11.00;;;3.97;;
5147;SDS011;2592;48.140;7.614;2023-07-20T06:18:56;15.83;;;4.30;;
5147;SDS011;2592;48.140;7.614;2023-07-20T06:21:23;6.00;;;3.77;;
5147;SDS011;2592;48.140;7.614;2023-07-20T06:23:51;12.90;;;5.87;;
5147;SDS011;2592;48.140;7.614;2023-07-20T06:26:17;9.27;;;5.33;;
5147;SDS011;2592;48.140;7.614;2023-07-20T06:28:45;7.00;;;3.77;;
5147;SDS011;2592;48.140;7.614;2023-07-20T06:31:11;7.93;;;3.73;;
5147;SDS011;2592;48.140;7.614;2023-07-20T06:33:37;7.67;;;4.10;;
5147;SDS011;2592;48.140;7.614;2023-07-20T06:36:04;4.90;;;3.10;;
5147;SDS011;2592;48.140;7.614;2023-07-20T06:38:30;9.87;;;3.60;;
5147;SDS011;2592;48.140;7.614;2023-07-20T06:40:58;6.73;;;3.70;;
5147;SDS011;2592;48.140;7.614;2023-07-20T06:43:25;6.70;;;3.47;;
5147;SDS011;2592;48.140;7.614;2023-07-20T06:45:51;8.97;;;2.80;;
5147;SDS011;2592;48.140;7.614;2023-07-20T06:48:18;8.83;;;3.70;;
5147;SDS011;2592;48.140;7.614;2023-07-20T06:50:45;11.80;;;4.20;;
5147;SDS011;2592;48.140;7.614;2023-07-20T06:53:11;7.70;;;3.37;;
5147;SDS011;2592;48.140;7.614;2023-07-20T06:55:38;11.03;;;3.80;;
5147;SDS011;2592;48.140;7.614;2023-07-20T06:58:06;5.93;;;4.03;;
5147;SDS011;2592;48.140;7.614;2023-07-20T07:00:32;7.37;;;3.67;;
5147;SDS011;2592;48.140;7.614;2023-07-20T07:02:58;7.87;;;3.50;;
5147;SDS011;2592;48.140;7.614;2023-07-20T07:05:25;12.30;;;3.87;;
5147;SDS011;2592;48.140;7.614;2023-07-20T07:07:51;17.83;;;4.30;;
5147;SDS011;2592;48.140;7.614;2023-07-20T07:10:18;10.63;;;4.50;;
5147;SDS011;2592;48.140;7.614;2023-07-20T07:12:44;13.47;;;4.43;;
5147;SDS011;2592;48.140;7.614;2023-07-20T07:15:12;7.90;;;3.97;;
5147;SDS011;2592;48.140;7.614;2023-07-20T07:17:38;9.80;;;4.27;;
5147;SDS011;2592;48.140;7.614;2023-07-20T07:20:05;11.47;;;4.20;;
5147;SDS011;2592;48.140;7.614;2023-07-20T07:22:32;13.37;;;4.40;;
5147;SDS011;2592;48.140;7.614;2023-07-20T07:24:59;8.73;;;4.60;;
5147;SDS011;2592;48.140;7.614;2023-07-20T07:27:25;12.17;;;4.20;;
5147;SDS011;2592;48.140;7.614;2023-07-20T07:29:51;12.77;;;4.30;;
5147;SDS011;2592;48.140;7.614;2023-07-20T07:32:19;17.53;;;4.53;;
5147;SDS011;2592;48.140;7.614;2023-07-20T07:34:46;10.73;;;4.70;;
5147;SDS011;2592;48.140;7.614;2023-07-20T07:37:13;9.90;;;4.03;;
5147;SDS011;2592;48.140;7.614;2023-07-20T07:39:39;10.70;;;4.20;;
5147;SDS011;2592;48.140;7.614;2023-07-20T07:42:06;15.20;;;4.87;;
5147;SDS011;2592;48.140;7.614;2023-07-20T07:44:32;14.23;;;3.67;;
5147;SDS011;2592;48.140;7.614;2023-07-20T07:46:59;5.13;;;3.47;;
5147;SDS011;2592;48.140;7.614;2023-07-20T07:49:26;9.50;;;3.97;;
5147;SDS011;2592;48.140;7.614;2023-07-20T07:51:54;8.70;;;3.00;;
5147;SDS011;2592;48.140;7.614;2023-07-20T07:54:20;7.40;;;4.37;;
5147;SDS011;2592;48.140;7.614;2023-07-20T07:56:47;6.90;;;4.50;;
5147;SDS011;2592;48.140;7.614;2023-07-20T07:59:13;8.10;;;3.40;;
5147;SDS011;2592;48.140;7.614;2023-07-20T08:01:39;15.43;;;3.90;;
5147;SDS011;2592;48.140;7.614;2023-07-20T08:04:06;10.37;;;3.10;;
5147;SDS011;2592;48.140;7.614;2023-07-20T08:06:34;7.70;;;3.50;;
5147;SDS011;2592;48.140;7.614;2023-07-20T08:09:01;7.83;;;3.40;;
5147;SDS011;2592;48.140;7.614;2023-07-20T08:11:28;5.23;;;3.40;;
5147;SDS011;2592;48.140;7.614;2023-07-20T08:13:55;7.50;;;2.93;;
5147;SDS011;2592;48.140;7.614;2023-07-20T08:16:22;7.10;;;3.10;;
5147;SDS011;2592;48.140;7.614;2023-07-20T08:18:48;10.13;;;3.43;;
5147;SDS011;2592;48.140;7.614;2023-07-20T08:21:15;5.07;;;3.07;;
5147;SDS011;2592;48.140;7.614;2023-07-20T08:23:43;9.87;;;3.60;;
5147;SDS011;2592;48.140;7.614;2023-07-20T08:26:10;5.47;;;2.90;;
5147;SDS011;2592;48.140;7.614;2023-07-20T08:28:36;10.23;;;3.23;;
5147;SDS011;2592;48.140;7.614;2023-07-20T08:31:05;5.77;;;2.60;;
5147;SDS011;2592;48.140;7.614;2023-07-20T08:33:31;7.20;;;3.20;;
5147;SDS011;2592;48.140;7.614;2023-07-20T08:35:58;4.63;;;2.73;;
5147;SDS011;2592;48.140;7.614;2023-07-20T08:38:26;4.67;;;2.40;;
5147;SDS011;2592;48.140;7.614;2023-07-20T08:40:53;4.90;;;3.00;;
5147;SDS011;2592;48.140;7.614;2023-07-20T08:43:21;3.80;;;2.73;;
5147;SDS011;2592;48.140;7.614;2023-07-20T08:45:49;4.30;;;2.83;;
5147;SDS011;2592;48.140;7.614;2023-07-20T08:48:16;5.77;;;2.70;;
5147;SDS011;2592;48.140;7.614;2023-07-20T08:50:44;8.80;;;2.67;;
5147;SDS011;2592;48.140;7.614;2023-07-20T08:53:12;8.43;;;2.83;;
5147;SDS011;2592;48.140;7.614;2023-07-20T08:55:39;8.67;;;2.93;;
5147;SDS011;2592;48.140;7.614;2023-07-20T08:58:08;7.30;;;2.30;;
5147;SDS011;2592;48.140;7.614;2023-07-20T09:00:34;16.07;;;3.33;;
5147;SDS011;2592;48.140;7.614;2023-07-20T09:03:01;5.80;;;2.80;;
5147;SDS011;2592;48.140;7.614;2023-07-20T09:05:28;11.23;;;2.97;;
5147;SDS011;2592;48.140;7.614;2023-07-20T09:07:55;7.30;;;2.80;;
5147;SDS011;2592;48.140;7.614;2023-07-20T09:10:21;5.63;;;3.07;;
5147;SDS011;2592;48.140;7.614;2023-07-20T09:12:48;4.87;;;2.67;;
5147;SDS011;2592;48.140;7.614;2023-07-20T09:15:16;3.33;;;2.23;;
5147;SDS011;2592;48.140;7.614;2023-07-20T09:17:45;7.40;;;2.63;;
5147;SDS011;2592;48.140;7.614;2023-07-20T09:20:11;6.80;;;2.87;;
5147;SDS011;2592;48.140;7.614;2023-07-20T09:22:38;10.80;;;3.20;;
5147;SDS011;2592;48.140;7.614;2023-07-20T09:25:06;10.10;;;3.33;;
5147;SDS011;2592;48.140;7.614;2023-07-20T09:27:35;7.10;;;2.50;;
5147;SDS011;2592;48.140;7.614;2023-07-20T09:30:02;4.47;;;2.43;;
5147;SDS011;2592;48.140;7.614;2023-07-20T09:32:31;8.80;;;2.87;;
5147;SDS011;2592;48.140;7.614;2023-07-20T09:34:57;7.23;;;2.80;;
5147;SDS011;2592;48.140;7.614;2023-07-20T09:37:23;7.17;;;2.27;;
5147;SDS011;2592;48.140;7.614;2023-07-20T09:39:51;3.30;;;2.23;;
5147;SDS011;2592;48.140;7.614;2023-07-20T09:42:18;5.60;;;2.17;;
5147;SDS011;2592;48.140;7.614;2023-07-20T09:44:45;8.67;;;2.90;;
5147;SDS011;2592;48.140;7.614;2023-07-20T09:47:11;4.87;;;2.40;;
5147;SDS011;2592;48.140;7.614;2023-07-20T09:49:42;7.10;;;3.13;;
5147;SDS011;2592;48.140;7.614;2023-07-20T09:52:09;3.40;;;2.17;;
5147;SDS011;2592;48.140;7.614;2023-07-20T09:54:36;5.13;;;2.13;;
5147;SDS011;2592;48.140;7.614;2023-07-20T09:57:03;5.60;;;2.77;;
5147;SDS011;2592;48.140;7.614;2023-07-20T09:59:30;6.03;;;2.40;;
5147;SDS011;2592;48.140;7.614;2023-07-20T10:01:58;4.60;;;2.30;;
5147;SDS011;2592;48.140;7.614;2023-07-20T10:04:25;6.43;;;2.73;;
5147;SDS011;2592;48.140;7.614;2023-07-20T10:06:54;5.50;;;2.13;;
5147;SDS011;2592;48.140;7.614;2023-07-20T10:09:21;7.50;;;2.57;;
5147;SDS011;2592;48.140;7.614;2023-07-20T10:11:49;7.90;;;2.27;;
5147;SDS011;2592;48.140;7.614;2023-07-20T10:14:16;3.90;;;2.30;;
5147;SDS011;2592;48.140;7.614;2023-07-20T10:16:46;4.97;;;2.40;;
5147;SDS011;2592;48.140;7.614;2023-07-20T10:19:21;3.03;;;2.10;;
5147;SDS011;2592;48.140;7.614;2023-07-20T10:21:51;6.90;;;2.47;;
5147;SDS011;2592;48.140;7.614;2023-07-20T10:24:24;4.37;;;2.60;;
5147;SDS011;2592;48.140;7.614;2023-07-20T10:26:50;9.33;;;2.93;;
5147;SDS011;2592;48.140;7.614;2023-07-20T10:29:17;7.00;;;2.73;;
5147;SDS011;2592;48.140;7.614;2023-07-20T10:31:44;3.10;;;2.23;;
5147;SDS011;2592;48.140;7.614;2023-07-20T10:34:11;7.23;;;2.23;;
5147;SDS011;2592;48.140;7.614;2023-07-20T10:36:43;3.93;;;1.93;;
5147;SDS011;2592;48.140;7.614;2023-07-20T10:39:13;4.77;;;2.40;;
5147;SDS011;2592;48.140;7.614;2023-07-20T10:41:49;12.83;;;2.77;;
5147;SDS011;2592;48.140;7.614;2023-07-20T10:44:19;4.10;;;2.60;;
5147;SDS011;2592;48.140;7.614;2023-07-20T10:46:46;2.50;;;2.00;;
5147;SDS011;2592;48.140;7.614;2023-07-20T10:49:13;3.47;;;2.23;;
5147;SDS011;2592;48.140;7.614;2023-07-20T10:51:40;5.33;;;2.70;;
5147;SDS011;2592;48.140;7.614;2023-07-20T10:54:07;4.90;;;2.33;;
5147;SDS011;2592;48.140;7.614;2023-07-20T10:56:34;6.40;;;2.60;;
5147;SDS011;2592;48.140;7.614;2023-07-20T10:59:02;7.17;;;2.80;;
5147;SDS011;2592;48.140;7.614;2023-07-20T11:01:43;8.10;;;2.47;;
5147;SDS011;2592;48.140;7.614;2023-07-20T11:04:10;3.63;;;2.00;;
5147;SDS011;2592;48.140;7.614;2023-07-20T11:06:36;8.13;;;2.40;;
5147;SDS011;2592;48.140;7.614;2023-07-20T11:09:06;4.70;;;2.30;;
5147;SDS011;2592;48.140;7.614;2023-07-20T11:11:33;6.80;;;2.60;;
5147;SDS011;2592;48.140;7.614;2023-07-20T11:14:00;5.03;;;1.80;;
5147;SDS011;2592;48.140;7.614;2023-07-20T11:16:35;5.87;;;2.87;;
5147;SDS011;2592;48.140;7.614;2023-07-20T11:19:02;5.80;;;1.97;;
5147;SDS011;2592;48.140;7.614;2023-07-20T11:21:29;4.67;;;2.10;;
5147;SDS011;2592;48.140;7.614;2023-07-20T11:23:55;3.77;;;2.17;;
5147;SDS011;2592;48.140;7.614;2023-07-20T11:26:22;5.80;;;2.03;;
5147;SDS011;2592;48.140;7.614;2023-07-20T11:28:49;7.70;;;2.27;;
5147;SDS011;2592;48.140;7.614;2023-07-20T11:31:16;8.57;;;2.70;;
5147;SDS011;2592;48.140;7.614;2023-07-20T11:33:44;4.33;;;2.50;;
5147;SDS011;2592;48.140;7.614;2023-07-20T11:36:11;4.50;;;2.17;;
5147;SDS011;2592;48.140;7.614;2023-07-20T11:38:38;6.07;;;2.10;;
5147;SDS011;2592;48.140;7.614;2023-07-20T11:41:05;2.93;;;1.73;;
5147;SDS011;2592;48.140;7.614;2023-07-20T11:43:32;4.33;;;2.03;;
5147;SDS011;2592;48.140;7.614;2023-07-20T11:45:58;4.63;;;2.30;;
5147;SDS011;2592;48.140;7.614;2023-07-20T11:48:26;4.20;;;2.03;;
5147;SDS011;2592;48.140;7.614;2023-07-20T11:50:53;3.50;;;1.73;;
5147;SDS011;2592;48.140;7.614;2023-07-20T11:53:20;4.03;;;1.90;;
5147;SDS011;2592;48.140;7.614;2023-07-20T11:55:46;5.93;;;2.00;;
5147;SDS011;2592;48.140;7.614;2023-07-20T11:58:13;3.07;;;1.60;;
5147;SDS011;2592;48.140;7.614;2023-07-20T12:00:41;4.33;;;2.13;;
5147;SDS011;2592;48.140;7.614;2023-07-20T12:03:11;5.03;;;1.60;;
5147;SDS011;2592;48.140;7.614;2023-07-20T12:05:38;3.53;;;1.73;;
5147;SDS011;2592;48.140;7.614;2023-07-20T12:08:06;4.73;;;2.13;;
5147;SDS011;2592;48.140;7.614;2023-07-20T12:10:33;5.83;;;1.93;;
5147;SDS011;2592;48.140;7.614;2023-07-20T12:13:02;3.50;;;1.77;;
5147;SDS011;2592;48.140;7.614;2023-07-20T12:15:29;3.33;;;1.73;;
5147;SDS011;2592;48.140;7.614;2023-07-20T12:17:57;5.37;;;2.20;;
5147;SDS011;2592;48.140;7.614;2023-07-20T12:20:27;5.00;;;1.50;;
5147;SDS011;2592;48.140;7.614;2023-07-20T12:22:55;4.83;;;2.10;;
5147;SDS011;2592;48.140;7.614;2023-07-20T12:25:23;2.00;;;1.43;;
5147;SDS011;2592;48.140;7.614;2023-07-20T12:27:59;3.40;;;1.97;;
5147;SDS011;2592;48.140;7.614;2023-07-20T12:30:27;6.30;;;1.97;;
5147;SDS011;2592;48.140;7.614;2023-07-20T12:32:53;3.17;;;2.10;;
5147;SDS011;2592;48.140;7.614;2023-07-20T12:35:20;3.63;;;1.60;;
5147;SDS011;2592;48.140;7.614;2023-07-20T12:37:47;2.50;;;1.80;;
5147;SDS011;2592;48.140;7.614;2023-07-20T12:40:14;5.00;;;1.77;;
5147;SDS011;2592;48.140;7.614;2023-07-20T12:42:42;4.23;;;1.83;;
5147;SDS011;2592;48.140;7.614;2023-07-20T12:45:10;12.03;;;2.00;;
5147;SDS011;2592;48.140;7.614;2023-07-20T12:47:36;6.33;;;2.20;;
5147;SDS011;2592;48.140;7.614;2023-07-20T12:50:03;4.07;;;2.07;;
5147;SDS011;2592;48.140;7.614;2023-07-20T12:52:31;4.53;;;2.00;;
5147;SDS011;2592;48.140;7.614;2023-07-20T12:54:57;3.47;;;1.63;;
5147;SDS011;2592;48.140;7.614;2023-07-20T12:57:26;6.10;;;2.27;;
5147;SDS011;2592;48.140;7.614;2023-07-20T12:59:54;9.67;;;1.80;;
5147;SDS011;2592;48.140;7.614;2023-07-20T13:02:20;4.53;;;2.23;;
5147;SDS011;2592;48.140;7.614;2023-07-20T13:04:47;3.40;;;2.17;;
5147;SDS011;2592;48.140;7.614;2023-07-20T13:07:13;3.20;;;1.90;;
5147;SDS011;2592;48.140;7.614;2023-07-20T13:09:39;6.47;;;1.90;;
5147;SDS011;2592;48.140;7.614;2023-07-20T13:12:06;3.17;;;1.87;;
5147;SDS011;2592;48.140;7.614;2023-07-20T13:14:33;3.77;;;1.90;;
5147;SDS011;2592;48.140;7.614;2023-07-20T13:17:01;6.67;;;2.17;;
5147;SDS011;2592;48.140;7.614;2023-07-20T13:19:27;2.20;;;1.60;;
5147;SDS011;2592;48.140;7.614;2023-07-20T13:21:54;3.07;;;2.00;;
5147;SDS011;2592;48.140;7.614;2023-07-20T13:24:20;7.10;;;2.10;;
5147;SDS011;2592;48.140;7.614;2023-07-20T13:26:46;2.30;;;2.10;;
5147;SDS011;2592;48.140;7.614;2023-07-20T13:29:13;7.13;;;2.07;;
5147;SDS011;2592;48.140;7.614;2023-07-20T13:31:39;3.60;;;1.63;;
5147;SDS011;2592;48.140;7.614;2023-07-20T13:34:07;8.10;;;2.20;;
5147;SDS011;2592;48.140;7.614;2023-07-20T13:36:33;7.40;;;1.97;;
5147;SDS011;2592;48.140;7.614;2023-07-20T13:39:00;2.00;;;1.70;;
5147;SDS011;2592;48.140;7.614;2023-07-20T13:41:26;2.50;;;1.70;;
5147;SDS011;2592;48.140;7.614;2023-07-20T13:43:53;4.23;;;1.80;;
5147;SDS011;2592;48.140;7.614;2023-07-20T13:46:19;4.60;;;1.40;;
5147;SDS011;2592;48.140;7.614;2023-07-20T13:48:46;2.57;;;1.53;;
5147;SDS011;2592;48.140;7.614;2023-07-20T13:51:14;2.60;;;1.80;;
5147;SDS011;2592;48.140;7.614;2023-07-20T13:53:40;5.50;;;1.77;;
5147;SDS011;2592;48.140;7.614;2023-07-20T13:56:06;6.37;;;2.07;;
5147;SDS011;2592;48.140;7.614;2023-07-20T13:58:33;4.30;;;2.00;;
5147;SDS011;2592;48.140;7.614;2023-07-20T14:00:59;24.57;;;2.07;;
5147;SDS011;2592;48.140;7.614;2023-07-20T14:03:26;4.10;;;1.93;;
5147;SDS011;2592;48.140;7.614;2023-07-20T14:05:52;3.70;;;1.70;;
5147;SDS011;2592;48.140;7.614;2023-07-20T14:08:20;6.00;;;1.97;;
5147;SDS011;2592;48.140;7.614;2023-07-20T14:10:46;5.97;;;1.73;;
5147;SDS011;2592;48.140;7.614;2023-07-20T14:13:13;10.43;;;2.77;;
5147;SDS011;2592;48.140;7.614;2023-07-20T14:15:39;5.60;;;1.83;;
5147;SDS011;2592;48.140;7.614;2023-07-20T14:18:06;4.10;;;2.30;;
5147;SDS011;2592;48.140;7.614;2023-07-20T14:20:32;2.37;;;1.67;;
5147;SDS011;2592;48.140;7.614;2023-07-20T14:22:59;3.73;;;2.00;;
5147;SDS011;2592;48.140;7.614;2023-07-20T14:25:27;2.73;;;1.60;;
5147;SDS011;2592;48.140;7.614;2023-07-20T14:27:53;6.57;;;1.73;;
5147;SDS011;2592;48.140;7.614;2023-07-20T14:30:19;2.40;;;1.70;;
5147;SDS011;2592;48.140;7.614;2023-07-20T14:32:46;6.00;;;2.00;;
5147;SDS011;2592;48.140;7.614;2023-07-20T14:35:12;6.57;;;1.80;;
5147;SDS011;2592;48.140;7.614;2023-07-20T14:37:39;3.10;;;1.63;;
5147;SDS011;2592;48.140;7.614;2023-07-20T14:40:06;10.93;;;2.10;;
5147;SDS011;2592;48.140;7.614;2023-07-20T14:42:34;1.90;;;1.60;;
5147;SDS011;2592;48.140;7.614;2023-07-20T14:45:01;2.63;;;1.70;;
5147;SDS011;2592;48.140;7.614;2023-07-20T14:47:27;3.73;;;2.13;;
5147;SDS011;2592;48.140;7.614;2023-07-20T14:49:57;2.50;;;1.70;;
5147;SDS011;2592;48.140;7.614;2023-07-20T14:52:23;2.20;;;1.80;;
5147;SDS011;2592;48.140;7.614;2023-07-20T14:54:50;3.47;;;1.80;;
5147;SDS011;2592;48.140;7.614;2023-07-20T14:57:16;4.67;;;2.37;;
5147;SDS011;2592;48.140;7.614;2023-07-20T14:59:44;2.17;;;1.83;;
5147;SDS011;2592;48.140;7.614;2023-07-20T15:02:10;6.63;;;2.40;;
5147;SDS011;2592;48.140;7.614;2023-07-20T15:04:37;2.30;;;1.83;;
5147;SDS011;2592;48.140;7.614;2023-07-20T15:07:03;3.40;;;1.80;;
5147;SDS011;2592;48.140;7.614;2023-07-20T15:09:30;10.83;;;1.73;;
5147;SDS011;2592;48.140;7.614;2023-07-20T15:11:56;3.10;;;1.87;;
5147;SDS011;2592;48.140;7.614;2023-07-20T15:14:23;2.73;;;1.70;;